Nearby METAR Reports

 

KPBH - Phillips, Wisconsin, USA
Distance from station: SE 13mi, 21km
Updated: 04/24/2018 3:35pm
Clear
Clear
 Wind from N
Wind: N 10 mph , 17 km/h, Gust: 20 mph , 31 km/h
Temperature: 57°F , 14°C
Dew Point: 32°F , 0°C
Humidity: 39%
Barometer: 30.11 inHg , 1019.6 hPa
Clouds: Clear
Visibility: 10 miles , 16 km
2018/04/24 20:35 KPBH 242035Z AUTO 35009G17KT 10SM CLR 14/00 A3011 RMK AO2 T01391001
KRCX - Ladysmith/Rusk, Wisconsin, USA
Distance from station: SW 29mi, 46km
Updated: 04/24/2018 3:35pm
Mostly cloudy
Mostly cloudy
 Wind from NNW
Wind: NNW 17 mph , 28 km/h
Temperature: 59°F , 15°C
Dew Point: 32°F , 0°C
Humidity: 36%
Barometer: 30.14 inHg , 1020.7 hPa
Clouds: Mostly cloudy
Visibility: 10 miles , 16 km
Cloud details: Partly cloudy 8000 ft
Mostly cloudy 10000 ft
Mostly cloudy 12000 ft
2018/04/24 20:35 KRCX 242035Z AUTO 33015KT 10SM SCT080 BKN100 BKN120 15/00 A3014 RMK AO2 T01470000
 
KD25 - Manitowish Water, Wisconsin, USA
Distance from station: ENE 41mi, 66km
Updated: 04/24/2018 3:35pm
Partly cloudy
Partly cloudy
 Wind from N
Wind: N 10 mph , 17 km/h, Gust: 16 mph , 26 km/h
Temperature: 50°F , 10°C
Wind Chill: 46°F , 8°C
Dew Point: 28°F , -2°C
Humidity: 43%
Barometer: 30.13 inHg , 1020.3 hPa
Clouds: Partly cloudy
Visibility: 10 miles , 16 km
Cloud details: Partly cloudy 7000 ft
Partly cloudy 9000 ft
2018/04/24 20:35 KD25 242035Z AUTO 36009G14KT 10SM SCT070 SCT090 10/M02 A3013 RMK AO2 T01001017
KHYR - Hayward, Wisconsin, USA
Distance from station: WNW 42mi, 68km
Updated: 04/24/2018 2:53pm
Light rain, Overcast
Light rain, Overcast
 Wind from N
Wind: N 12 mph , 19 km/h, Gust: 17 mph , 28 km/h
Temperature: 54°F , 12°C
Dew Point: 34°F , 1°C
Humidity: 47%
Barometer: 30.18 inHg , 1022 hPa
Summary: Light rain
Clouds: Overcast
Visibility: 10 miles , 16 km
Cloud details: Mostly cloudy 5000 ft
Overcast 7000 ft
2018/04/24 19:53 KHYR 241953Z AUTO 01010G15KT 10SM -RA BKN050 OVC070 12/01 A3018 RMK AO2 RAB41 SLP229 P0000 T01170011
 
KARV - Minocqua/Woodruf, Wisconsin, USA
Distance from station: E 44mi, 71km
Updated: 04/24/2018 3:35pm
Overcast
Overcast
 Wind from N
Wind: N 13 mph , 20 km/h
Temperature: 55°F , 13°C
Dew Point: 30°F , -1°C
Humidity: 38%
Barometer: 30.10 inHg , 1019.3 hPa
Clouds: Overcast
Visibility: 10 miles , 16 km
Cloud details: Overcast 10000 ft
2018/04/24 20:35 KARV 242035Z AUTO 35011KT 10SM OVC100 13/M01 A3010 RMK AO2 T01331006
KTKV - Tomahawk Regnl, Wisconsin, USA
Distance from station: ESE 46mi, 74km
Updated: 04/24/2018 3:35pm
Clear
Clear
 Wind from NNW
Wind: NNW 9 mph , 15 km/h
Temperature: 63°F , 17°C
Dew Point: 30°F , -1°C
Humidity: 30%
Barometer: 30.08 inHg , 1018.6 hPa
Clouds: Clear
Visibility: 10 miles , 16 km
2018/04/24 20:35 KTKV 242035Z AUTO 34008KT 10SM CLR 17/M01 A3008 RMK AO2 T01651010